Time;durP1;ratioP1;P1;durP2;ratioP2;P2;SDS_P1;SDS_P2;PMS_P1;PMS_P2;Temp;Humidity;BMP_temperature;BMP_pressure;BME280_temperature;BME280_humidity;BME280_pressure;Samples;Min_cycle;Max_cycle;Signal;HPM_P1;HPM_P2
2022/05/27 00:00:39;;;;;;;;;;;;;;;;;;2097841;28;19980;-80
2022/05/27 00:01:39;;;;;;;;;;;;;;;;;;2088761;28;19912;-80
2022/05/27 00:02:39;;;;;;;;;;;;;;;;;;2080605;28;20290;-80
2022/05/27 00:03:39;;;;;;;;;;;;;;;;;;2088951;28;19978;-80
2022/05/27 00:04:40;;;;;;;;;;;;;;;;;;2097476;28;19913;-80
2022/05/27 00:05:40;;;;;;;;;;;;;;;;;;2097702;28;19912;-80
2022/05/27 00:06:40;;;;;;;;;;;;;;;;;;2097734;28;19916;-80
2022/05/27 00:07:41;;;;;;;;;;;;;;;;;;2097555;28;20258;-80
2022/05/27 00:08:41;;;;;;;;;;;;;;;;;;2097744;28;20058;-80
2022/05/27 00:09:41;;;;;;;;;;;;;;;;;;2097652;28;20511;-80
2022/05/27 00:10:42;;;;;;;;;;;;;;;;;;2097561;28;19973;-80
2022/05/27 00:11:42;;;;;;;;;;;;;;;;;;2097696;28;19921;-80
2022/05/27 00:12:42;;;;;;;;;;;;;;;;;;2097624;28;19912;-80
2022/05/27 00:13:43;;;;;;;;;;;;;;;;;;2097606;28;19913;-79
2022/05/27 00:14:43;;;;;;;;;;;;;;;;;;2097673;28;20427;-80
2022/05/27 00:15:44;;;;;;;;;;;;;;;;;;2097993;28;19923;-80
2022/05/27 00:16:44;;;;;;;;;;;;;;;;;;2097813;28;19923;-80
2022/05/27 00:17:44;;;;;;;;;;;;;;;;;;2097618;28;19912;-80
2022/05/27 00:18:45;;;;;;;;;;;;;;;;;;2088786;28;19913;-80
2022/05/27 00:19:45;;;;;;;;;;;;;;;;;;2088821;28;19917;-80
2022/05/27 00:20:45;;;;;;;;;;;;;;;;;;2097702;28;19916;-80
2022/05/27 00:21:45;;;;;;;;;;;;;;;;;;2097630;28;19916;-80
2022/05/27 00:22:46;;;;;;;;;;;;;;;;;;2097623;28;20007;-80
2022/05/27 00:23:46;;;;;;;;;;;;;;;;;;2097524;28;20420;-80
2022/05/27 00:24:46;;;;;;;;;;;;;;;;;;2088797;28;19974;-80
2022/05/27 00:25:47;;;;;;;;;;;;;;;;;;2088993;28;19927;-80
2022/05/27 00:26:47;;;;;;;;;;;;;;;;;;2097742;28;20396;-80
2022/05/27 00:27:47;;;;;;;;;;;;;;;;;;2088804;28;20435;-78
2022/05/27 00:28:48;;;;;;;;;;;;;;;;;;2088839;28;19963;-79
2022/05/27 00:29:48;;;;;;;;;;;;;;;;;;2097563;28;19912;-80
2022/05/27 00:30:48;;;;;;;;;;;;;;;;;;2088820;28;19915;-80
2022/05/27 00:31:48;;;;;;;;;;;;;;;;;;2080569;28;20000;-80
2022/05/27 00:32:49;;;;;;;;;;;;;;;;;;2088813;28;20393;-80
2022/05/27 00:33:49;;;;;;;;;;;;;;;;;;2097569;28;19913;-80
2022/05/27 00:34:50;;;;;;;;;;;;;;;;;;2088840;28;19913;-79
2022/05/27 00:35:50;;;;;;;;;;;;;;;;;;2088799;28;20455;-79
2022/05/27 00:36:51;;;;;;;;;;;;;;;;;;2097622;28;19912;-79
2022/05/27 00:37:51;;;;;;;;;;;;;;;;;;2088911;28;20153;-80
2022/05/27 00:38:51;;;;;;;;;;;;;;;;;;2088812;28;19956;-79
2022/05/27 00:39:51;;;;;;;;;;;;;;;;;;2097749;28;20254;-80
2022/05/27 00:40:52;;;;;;;;;;;;;;;;;;2098737;28;19995;-79
2022/05/27 00:41:53;;;;;;;;;;;;;;;;;;2099568;28;19922;-80
2022/05/27 00:42:53;;;;;;;;;;;;;;;;;;2090593;28;19974;-80
2022/05/27 00:43:53;;;;;;;;;;;;;;;;;;2090658;28;20000;-80
2022/05/27 00:44:53;;;;;;;;;;;;;;;;;;2090545;28;19912;-80
2022/05/27 00:46:15;;;;;;;;;;;;;;;;;;2090556;28;19912;-80
2022/05/27 00:47:19;;;;;;;;;;;;;;;;;;2090665;28;19913;-80
2022/05/27 00:48:20;;;;;;;;;;;;;;;;;;2082537;28;19943;-80
2022/05/27 00:49:24;;;;;;;;;;;;;;;;;;2090730;28;19975;-80
2022/05/27 00:50:27;;;;;;;;;;;;;;;;;;2099300;28;20011;-80
2022/05/27 00:51:29;;;;;;;;;;;;;;;;;;2099247;28;19919;-80
2022/05/27 00:52:30;;;;;;;;;;;;;;;;;;2099348;28;19916;-80
2022/05/27 00:53:38;;;;;;;;;;;;;;;;;;2099154;28;19985;-80
2022/05/27 00:54:40;;;;;;;;;;;;;;;;;;2099235;28;19923;-80
2022/05/27 00:55:43;;;;;;;;;;;;;;;;;;2099319;28;19913;-80
2022/05/27 00:56:45;;;;;;;;;;;;;;;;;;2099104;28;19912;-80
2022/05/27 00:57:53;;;;;;;;;;;;;;;;;;2099069;28;19913;-79
2022/05/27 00:58:57;;;;;;;;;;;;;;;;;;2099267;28;19917;-79
2022/05/27 01:00:07;;;;;;;;;;;;;;;;;;2090272;28;19917;-80
2022/05/27 01:01:07;;;;;;;;;;;;;;;;;;2091624;28;19948;-80
2022/05/27 01:02:07;;;;;;;;;;;;;;;;;;2099147;28;19924;-80
2022/05/27 01:03:11;;;;;;;;;;;;;;;;;;2099171;28;19916;-80
2022/05/27 01:04:12;;;;;;;;;;;;;;;;;;2099382;28;19916;-80
2022/05/27 01:05:13;;;;;;;;;;;;;;;;;;2099133;28;20361;-79
2022/05/27 01:06:14;;;;;;;;;;;;;;;;;;2090528;28;20426;-79
2022/05/27 01:07:14;;;;;;;;;;;;;;;;;;2082032;28;20025;-79
2022/05/27 01:08:16;;;;;;;;;;;;;;;;;;2081903;28;19956;-80
2022/05/27 01:09:16;;;;;;;;;;;;;;;;;;2090470;28;20282;-80
2022/05/27 01:10:19;;;;;;;;;;;;;;;;;;2099169;28;19923;-80
2022/05/27 01:11:37;;;;;;;;;;;;;;;;;;2099137;28;20191;-79
2022/05/27 01:12:56;;;;;;;;;;;;;;;;;;2099108;28;19916;-79
2022/05/27 01:13:56;;;;;;;;;;;;;;;;;;2099148;28;19916;-79
2022/05/27 01:15:09;;;;;;;;;;;;;;;;;;2099312;28;19916;-79
2022/05/27 01:16:21;;;;;;;;;;;;;;;;;;2090348;28;19920;-79
2022/05/27 01:17:37;;;;;;;;;;;;;;;;;;2091982;28;20046;-79
2022/05/27 01:20:21;;;;;;;;;;;;;;;;;;2099089;28;19920;-79
2022/05/27 01:21:33;;;;;;;;;;;;;;;;;;2099014;28;19920;-79
2022/05/27 01:22:46;;;;;;;;;;;;;;;;;;2099057;28;19913;-79
2022/05/27 01:23:49;;;;;;;;;;;;;;;;;;2098972;28;19927;-79
2022/05/27 01:25:08;;;;;;;;;;;;;;;;;;2099003;28;19978;-80
2022/05/27 01:26:08;;;;;;;;;;;;;;;;;;2090013;28;20018;-79
2022/05/27 01:27:22;;;;;;;;;;;;;;;;;;2090309;28;19940;-79
2022/05/27 01:28:22;;;;;;;;;;;;;;;;;;2098873;28;19923;-79
2022/05/27 01:29:34;;;;;;;;;;;;;;;;;;2098959;28;20409;-79
2022/05/27 01:30:43;;;;;;;;;;;;;;;;;;2098865;28;19912;-79
2022/05/27 01:31:46;;;;;;;;;;;;;;;;;;2099062;28;20195;-79
2022/05/27 01:32:46;;;;;;;;;;;;;;;;;;2090208;28;20050;-79
2022/05/27 01:33:53;;;;;;;;;;;;;;;;;;2090211;28;20449;-79
2022/05/27 01:34:56;;;;;;;;;;;;;;;;;;2098952;28;20242;-79
2022/05/27 01:36:06;;;;;;;;;;;;;;;;;;2098912;28;19912;-79
2022/05/27 01:37:12;;;;;;;;;;;;;;;;;;2090064;28;19917;-79
2022/05/27 01:38:19;;;;;;;;;;;;;;;;;;2090930;28;19913;-79
2022/05/27 01:39:25;;;;;;;;;;;;;;;;;;2090115;28;20357;-79
2022/05/27 01:40:30;;;;;;;;;;;;;;;;;;2090056;28;19912;-79
2022/05/27 01:41:43;;;;;;;;;;;;;;;;;;2090890;28;19923;-79
2022/05/27 01:42:51;;;;;;;;;;;;;;;;;;2098712;28;20349;-77
2022/05/27 01:43:59;;;;;;;;;;;;;;;;;;2098935;28;19909;-79
2022/05/27 01:44:59;;;;;;;;;;;;;;;;;;2098977;28;19916;-79
2022/05/27 01:45:59;;;;;;;;;;;;;;;;;;2098810;28;19948;-79
2022/05/27 01:47:01;;;;;;;;;;;;;;;;;;2098838;28;19922;-79
2022/05/27 01:48:17;;;;;;;;;;;;;;;;;;2098890;28;19956;-79
2022/05/27 01:49:18;;;;;;;;;;;;;;;;;;2081860;28;19917;-79
2022/05/27 01:50:28;;;;;;;;;;;;;;;;;;2081840;28;20040;-79
2022/05/27 01:51:34;;;;;;;;;;;;;;;;;;2098938;28;19921;-79
2022/05/27 01:52:38;;;;;;;;;;;;;;;;;;2097912;28;20011;-79
2022/05/27 01:53:45;;;;;;;;;;;;;;;;;;2089930;28;19913;-79
2022/05/27 01:54:48;;;;;;;;;;;;;;;;;;2082817;28;19921;-79
2022/05/27 01:56:00;;;;;;;;;;;;;;;;;;2090380;28;20290;-79
2022/05/27 01:57:06;;;;;;;;;;;;;;;;;;2101472;28;19987;-79
2022/05/27 01:58:10;;;;;;;;;;;;;;;;;;2089809;28;19917;-79
2022/05/27 01:59:17;;;;;;;;;;;;;;;;;;2090559;28;19923;-77
2022/05/27 02:00:22;;;;;;;;;;;;;;;;;;2098729;28;19959;-79
2022/05/27 02:01:48;;;;;;;;;;;;;;;;;;2098672;28;19921;-79
2022/05/27 02:03:15;;;;;;;;;;;;;;;;;;2095540;28;20397;-79
2022/05/27 02:04:19;;;;;;;;;;;;;;;;;;2095527;28;19912;-79
2022/05/27 02:05:22;;;;;;;;;;;;;;;;;;2089969;28;19913;-79
2022/05/27 02:06:32;;;;;;;;;;;;;;;;;;2089705;28;19920;-79
2022/05/27 02:07:45;;;;;;;;;;;;;;;;;;2091286;28;19983;-79
2022/05/27 02:08:48;;;;;;;;;;;;;;;;;;2098557;28;20297;-79
2022/05/27 02:10:03;;;;;;;;;;;;;;;;;;2098669;28;19912;-79
2022/05/27 02:11:12;;;;;;;;;;;;;;;;;;2098697;28;20012;-79
2022/05/27 02:12:42;;;;;;;;;;;;;;;;;;2098634;28;19983;-79
2022/05/27 02:13:53;;;;;;;;;;;;;;;;;;2076673;28;19905;-79
2022/05/27 02:14:56;;;;;;;;;;;;;;;;;;2082846;28;19913;-79
2022/05/27 02:15:56;;;;;;;;;;;;;;;;;;2081784;28;20348;-80
2022/05/27 02:17:07;;;;;;;;;;;;;;;;;;2089719;28;20024;-79
2022/05/27 02:18:21;;;;;;;;;;;;;;;;;;2098562;28;19916;-79
2022/05/27 02:19:29;;;;;;;;;;;;;;;;;;2098640;28;19912;-79
2022/05/27 02:20:38;;;;;;;;;;;;;;;;;;2098386;28;19927;-79
2022/05/27 02:21:44;;;;;;;;;;;;;;;;;;2098597;28;20305;-80
2022/05/27 02:22:55;;;;;;;;;;;;;;;;;;2098463;28;19912;-79
2022/05/27 02:23:58;;;;;;;;;;;;;;;;;;2098504;28;19913;-79
2022/05/27 02:25:04;;;;;;;;;;;;;;;;;;2098454;28;19913;-79
2022/05/27 02:26:08;;;;;;;;;;;;;;;;;;2098488;28;19923;-79
2022/05/27 02:27:09;;;;;;;;;;;;;;;;;;2098371;28;19912;-80
2022/05/27 02:28:18;;;;;;;;;;;;;;;;;;2089665;28;19916;-80
2022/05/27 02:29:22;;;;;;;;;;;;;;;;;;2082481;28;20400;-80
2022/05/27 02:30:29;;;;;;;;;;;;;;;;;;2089510;28;19917;-80
2022/05/27 02:31:31;;;;;;;;;;;;;;;;;;2090942;28;19913;-79
2022/05/27 02:32:33;;;;;;;;;;;;;;;;;;2089596;28;19958;-79
2022/05/27 02:35:12;;;;;;;;;;;;;;;;;;2098538;28;19912;-80
2022/05/27 02:36:14;;;;;;;;;;;;;;;;;;2098213;28;20381;-79
2022/05/27 02:37:18;;;;;;;;;;;;;;;;;;2098437;28;20357;-79
2022/05/27 02:38:18;;;;;;;;;;;;;;;;;;2098396;28;19917;-79
2022/05/27 02:39:19;;;;;;;;;;;;;;;;;;2098244;28;20365;-79
2022/05/27 02:40:21;;;;;;;;;;;;;;;;;;2098347;28;20273;-79
2022/05/27 02:41:40;;;;;;;;;;;;;;;;;;2098401;28;20001;-79
2022/05/27 02:42:59;;;;;;;;;;;;;;;;;;2098085;28;19913;-79
2022/05/27 02:44:14;;;;;;;;;;;;;;;;;;2098190;28;19912;-79
2022/05/27 02:45:23;;;;;;;;;;;;;;;;;;2098366;28;19912;-79
2022/05/27 02:46:27;;;;;;;;;;;;;;;;;;2098521;28;19923;-80
2022/05/27 02:47:31;;;;;;;;;;;;;;;;;;2098164;28;19923;-79
2022/05/27 02:48:36;;;;;;;;;;;;;;;;;;2098197;28;19943;-79
2022/05/27 02:49:44;;;;;;;;;;;;;;;;;;2089539;28;19948;-79
2022/05/27 02:50:58;;;;;;;;;;;;;;;;;;2090583;28;19973;-79
2022/05/27 02:52:01;;;;;;;;;;;;;;;;;;2098330;28;19917;-79
2022/05/27 02:53:19;;;;;;;;;;;;;;;;;;2098253;28;20378;-79
2022/05/27 02:54:25;;;;;;;;;;;;;;;;;;2098233;28;19982;-79
2022/05/27 02:55:32;;;;;;;;;;;;;;;;;;2098411;28;20385;-79
2022/05/27 02:56:35;;;;;;;;;;;;;;;;;;2097979;28;19948;-79
2022/05/27 02:57:41;;;;;;;;;;;;;;;;;;2098397;28;19913;-79
2022/05/27 02:58:42;;;;;;;;;;;;;;;;;;2098130;28;20321;-79
2022/05/27 02:59:42;;;;;;;;;;;;;;;;;;2098170;28;19924;-79
2022/05/27 03:00:43;;;;;;;;;;;;;;;;;;2098165;28;19970;-79
2022/05/27 03:01:46;;;;;;;;;;;;;;;;;;2098146;28;19913;-80
2022/05/27 03:02:47;;;;;;;;;;;;;;;;;;2098142;28;19928;-80
2022/05/27 03:03:47;;;;;;;;;;;;;;;;;;2098046;28;19917;-79
2022/05/27 03:04:50;;;;;;;;;;;;;;;;;;2098072;28;20320;-79
2022/05/27 03:05:59;;;;;;;;;;;;;;;;;;2098117;28;19924;-79
2022/05/27 03:07:18;;;;;;;;;;;;;;;;;;2098049;28;19977;-79
2022/05/27 03:08:22;;;;;;;;;;;;;;;;;;2089449;28;20327;-79
2022/05/27 03:09:41;;;;;;;;;;;;;;;;;;2089925;28;20373;-79
2022/05/27 03:11:00;;;;;;;;;;;;;;;;;;2098165;28;19974;-79
2022/05/27 03:12:30;;;;;;;;;;;;;;;;;;2089341;28;19916;-79
2022/05/27 03:13:50;;;;;;;;;;;;;;;;;;2075995;28;19939;-79
2022/05/27 03:15:00;;;;;;;;;;;;;;;;;;2098210;28;19912;-79
2022/05/27 03:16:00;;;;;;;;;;;;;;;;;;2097994;28;20365;-80
2022/05/27 03:17:00;;;;;;;;;;;;;;;;;;2098066;28;19912;-79
2022/05/27 03:18:20;;;;;;;;;;;;;;;;;;2097994;28;19924;-79
2022/05/27 03:19:38;;;;;;;;;;;;;;;;;;2097915;28;19951;-79
2022/05/27 03:20:57;;;;;;;;;;;;;;;;;;2097931;28;19926;-79
2022/05/27 03:22:14;;;;;;;;;;;;;;;;;;2098034;28;19981;-79
2022/05/27 03:23:16;;;;;;;;;;;;;;;;;;2089137;28;19939;-79
2022/05/27 03:24:35;;;;;;;;;;;;;;;;;;2089624;28;20180;-79
2022/05/27 03:25:36;;;;;;;;;;;;;;;;;;2097929;28;20003;-79
2022/05/27 03:26:39;;;;;;;;;;;;;;;;;;2097955;28;20292;-79
2022/05/27 03:27:42;;;;;;;;;;;;;;;;;;2097879;28;19913;-79
2022/05/27 03:28:43;;;;;;;;;;;;;;;;;;2097965;28;19923;-79
2022/05/27 03:29:50;;;;;;;;;;;;;;;;;;2097897;28;19913;-79
2022/05/27 03:30:54;;;;;;;;;;;;;;;;;;2097829;28;19916;-80
2022/05/27 03:32:12;;;;;;;;;;;;;;;;;;2089302;28;19997;-80
2022/05/27 03:33:25;;;;;;;;;;;;;;;;;;2091884;28;19924;-79
2022/05/27 03:34:25;;;;;;;;;;;;;;;;;;2097835;28;19912;-79
2022/05/27 03:35:32;;;;;;;;;;;;;;;;;;2097938;28;19955;-79
2022/05/27 03:36:39;;;;;;;;;;;;;;;;;;2089090;28;19913;-80
2022/05/27 03:37:42;;;;;;;;;;;;;;;;;;2090025;28;19916;-80
2022/05/27 03:38:49;;;;;;;;;;;;;;;;;;2097776;28;19916;-80
2022/05/27 03:39:58;;;;;;;;;;;;;;;;;;2089049;28;19913;-79
2022/05/27 03:41:04;;;;;;;;;;;;;;;;;;2082021;28;19913;-80
2022/05/27 03:42:06;;;;;;;;;;;;;;;;;;2089866;28;19963;-79
2022/05/27 03:43:07;;;;;;;;;;;;;;;;;;2089145;28;19920;-79
2022/05/27 03:44:07;;;;;;;;;;;;;;;;;;2089006;28;20388;-80
2022/05/27 03:45:10;;;;;;;;;;;;;;;;;;2097822;28;19912;-79
2022/05/27 03:46:10;;;;;;;;;;;;;;;;;;2097828;28;19981;-79
2022/05/27 03:47:11;;;;;;;;;;;;;;;;;;2097844;28;19977;-79
2022/05/27 03:48:11;;;;;;;;;;;;;;;;;;2097752;28;19979;-79
2022/05/27 03:49:11;;;;;;;;;;;;;;;;;;2097812;28;20011;-80
2022/05/27 03:50:14;;;;;;;;;;;;;;;;;;2097615;28;19912;-80
2022/05/27 03:51:18;;;;;;;;;;;;;;;;;;2097731;28;20373;-80
2022/05/27 03:52:21;;;;;;;;;;;;;;;;;;2097742;28;19912;-79
2022/05/27 03:53:21;;;;;;;;;;;;;;;;;;2098086;28;19943;-80
2022/05/27 03:54:22;;;;;;;;;;;;;;;;;;2097747;28;20007;-80
2022/05/27 03:55:25;;;;;;;;;;;;;;;;;;2097919;28;20033;-80
2022/05/27 03:56:28;;;;;;;;;;;;;;;;;;2088999;28;20266;-80
2022/05/27 03:57:28;;;;;;;;;;;;;;;;;;2089284;28;19912;-78
2022/05/27 03:58:29;;;;;;;;;;;;;;;;;;2097630;28;19917;-79
2022/05/27 03:59:29;;;;;;;;;;;;;;;;;;2097716;28;19912;-80
2022/05/27 04:00:29;;;;;;;;;;;;;;;;;;2097592;28;19913;-79
2022/05/27 04:01:30;;;;;;;;;;;;;;;;;;2097763;28;19920;-78
2022/05/27 04:02:31;;;;;;;;;;;;;;;;;;2097799;28;19916;-80
2022/05/27 04:03:31;;;;;;;;;;;;;;;;;;2089009;28;20374;-78
2022/05/27 04:04:31;;;;;;;;;;;;;;;;;;2089048;28;19913;-78
2022/05/27 04:05:32;;;;;;;;;;;;;;;;;;2088872;28;19920;-78
2022/05/27 04:06:32;;;;;;;;;;;;;;;;;;2088809;28;19912;-79
2022/05/27 04:07:33;;;;;;;;;;;;;;;;;;2089066;28;19913;-78
2022/05/27 04:08:33;;;;;;;;;;;;;;;;;;2089098;28;19913;-78
2022/05/27 04:09:36;;;;;;;;;;;;;;;;;;2097547;28;19931;-79
2022/05/27 04:10:36;;;;;;;;;;;;;;;;;;2089037;28;20013;-78
2022/05/27 04:11:37;;;;;;;;;;;;;;;;;;2080731;28;20344;-79
2022/05/27 04:12:37;;;;;;;;;;;;;;;;;;2088949;28;20373;-79
2022/05/27 04:13:38;;;;;;;;;;;;;;;;;;2088807;28;19920;-79
2022/05/27 04:14:38;;;;;;;;;;;;;;;;;;2080630;28;20000;-79
2022/05/27 04:15:38;;;;;;;;;;;;;;;;;;2088620;28;19916;-79
2022/05/27 04:16:39;;;;;;;;;;;;;;;;;;2097790;28;19924;-79
2022/05/27 04:17:41;;;;;;;;;;;;;;;;;;2097547;28;19912;-79
2022/05/27 04:18:41;;;;;;;;;;;;;;;;;;2088667;28;19947;-79
2022/05/27 04:19:41;;;;;;;;;;;;;;;;;;2088875;28;19916;-79
2022/05/27 04:20:41;;;;;;;;;;;;;;;;;;2097629;28;19954;-79
2022/05/27 04:21:42;;;;;;;;;;;;;;;;;;2097633;28;20373;-80
2022/05/27 04:22:42;;;;;;;;;;;;;;;;;;2088745;28;20361;-79
2022/05/27 04:23:43;;;;;;;;;;;;;;;;;;2088837;28;19978;-79
2022/05/27 04:24:43;;;;;;;;;;;;;;;;;;2088907;28;20012;-79
2022/05/27 04:25:47;;;;;;;;;;;;;;;;;;2097583;28;19912;-79
2022/05/27 04:26:47;;;;;;;;;;;;;;;;;;2097486;28;19951;-80
2022/05/27 04:27:48;;;;;;;;;;;;;;;;;;2097704;28;19912;-80
2022/05/27 04:28:48;;;;;;;;;;;;;;;;;;2088982;28;19913;-79
2022/05/27 04:29:49;;;;;;;;;;;;;;;;;;2080591;28;19982;-80
2022/05/27 04:30:49;;;;;;;;;;;;;;;;;;2080511;28;19913;-80
2022/05/27 04:31:50;;;;;;;;;;;;;;;;;;2089032;28;20004;-80
2022/05/27 04:32:50;;;;;;;;;;;;;;;;;;2088825;28;19939;-80
2022/05/27 04:33:50;;;;;;;;;;;;;;;;;;2088707;28;19917;-80
2022/05/27 04:34:51;;;;;;;;;;;;;;;;;;2097553;28;19912;-80
2022/05/27 04:35:51;;;;;;;;;;;;;;;;;;2088723;28;19917;-80
2022/05/27 04:36:52;;;;;;;;;;;;;;;;;;2088800;28;20384;-80
2022/05/27 04:37:52;;;;;;;;;;;;;;;;;;2097816;28;20007;-80
2022/05/27 04:38:52;;;;;;;;;;;;;;;;;;2097381;28;20007;-81
2022/05/27 04:39:53;;;;;;;;;;;;;;;;;;2097637;28;19917;-81
2022/05/27 04:40:53;;;;;;;;;;;;;;;;;;2088538;28;20096;-81
2022/05/27 04:41:53;;;;;;;;;;;;;;;;;;2088744;28;19995;-80
2022/05/27 04:42:54;;;;;;;;;;;;;;;;;;2088808;28;20086;-80
2022/05/27 04:43:58;;;;;;;;;;;;;;;;;;2080464;28;19913;-80
2022/05/27 04:44:58;;;;;;;;;;;;;;;;;;2089189;28;20346;-80
2022/05/27 04:45:58;;;;;;;;;;;;;;;;;;2097342;28;20002;-81
2022/05/27 04:46:59;;;;;;;;;;;;;;;;;;2097628;28;19981;-81
2022/05/27 04:47:59;;;;;;;;;;;;;;;;;;2097593;28;20427;-81
2022/05/27 04:48:59;;;;;;;;;;;;;;;;;;2097699;28;20289;-81
2022/05/27 04:50:00;;;;;;;;;;;;;;;;;;2097508;28;20007;-81
2022/05/27 04:51:00;;;;;;;;;;;;;;;;;;2097572;28;19966;-81
2022/05/27 04:52:00;;;;;;;;;;;;;;;;;;2097327;28;19913;-81
2022/05/27 04:53:01;;;;;;;;;;;;;;;;;;2097389;28;20019;-82
2022/05/27 04:54:03;;;;;;;;;;;;;;;;;;2097446;28;19939;-81
2022/05/27 04:55:07;;;;;;;;;;;;;;;;;;2097616;28;19912;-81
2022/05/27 04:56:08;;;;;;;;;;;;;;;;;;2088527;28;19925;-81
2022/05/27 04:57:12;;;;;;;;;;;;;;;;;;2088320;28;19913;-81
2022/05/27 04:58:12;;;;;;;;;;;;;;;;;;2088447;28;19912;-83
2022/05/27 04:59:12;;;;;;;;;;;;;;;;;;2080531;28;19917;-81
2022/05/27 05:00:16;;;;;;;;;;;;;;;;;;2080442;28;20197;-81
2022/05/27 05:01:16;;;;;;;;;;;;;;;;;;2080698;28;19924;-82
2022/05/27 05:02:23;;;;;;;;;;;;;;;;;;2088729;28;20016;-82
2022/05/27 05:03:24;;;;;;;;;;;;;;;;;;2097287;28;20293;-82
2022/05/27 05:04:24;;;;;;;;;;;;;;;;;;2097423;28;19924;-81
2022/05/27 05:05:25;;;;;;;;;;;;;;;;;;2097402;28;19912;-82
2022/05/27 05:06:26;;;;;;;;;;;;;;;;;;2097404;28;19924;-82
2022/05/27 05:07:26;;;;;;;;;;;;;;;;;;2088503;28;20628;-81
2022/05/27 05:08:33;;;;;;;;;;;;;;;;;;2080407;28;19960;-81
2022/05/27 05:09:34;;;;;;;;;;;;;;;;;;2089696;28;19920;-81
2022/05/27 05:10:35;;;;;;;;;;;;;;;;;;2097377;28;20262;-81
2022/05/27 05:11:35;;;;;;;;;;;;;;;;;;2097550;28;20128;-81
2022/05/27 05:12:36;;;;;;;;;;;;;;;;;;2097646;28;19916;-80
2022/05/27 05:13:36;;;;;;;;;;;;;;;;;;2097606;28;19927;-82
2022/05/27 05:14:36;;;;;;;;;;;;;;;;;;2097321;28;19956;-80
2022/05/27 05:15:37;;;;;;;;;;;;;;;;;;2097610;28;20013;-80
2022/05/27 05:16:38;;;;;;;;;;;;;;;;;;2096993;28;19912;-80
2022/05/27 05:17:38;;;;;;;;;;;;;;;;;;2097475;28;20147;-80
2022/05/27 05:18:38;;;;;;;;;;;;;;;;;;2097144;28;20510;-80
2022/05/27 05:19:39;;;;;;;;;;;;;;;;;;2088791;28;19956;-79
2022/05/27 05:20:39;;;;;;;;;;;;;;;;;;2088487;28;19917;-79
2022/05/27 05:21:39;;;;;;;;;;;;;;;;;;2097464;28;19924;-79
2022/05/27 05:22:40;;;;;;;;;;;;;;;;;;2088299;28;19921;-79
2022/05/27 05:23:40;;;;;;;;;;;;;;;;;;2088651;28;20317;-79
2022/05/27 05:24:40;;;;;;;;;;;;;;;;;;2097192;28;19987;-79
2022/05/27 05:25:40;;;;;;;;;;;;;;;;;;2088721;28;19913;-79
2022/05/27 05:26:41;;;;;;;;;;;;;;;;;;2088462;28;19913;-79
2022/05/27 05:27:41;;;;;;;;;;;;;;;;;;2089145;28;19960;-79
2022/05/27 05:28:41;;;;;;;;;;;;;;;;;;2090165;28;20411;-79
2022/05/27 05:29:42;;;;;;;;;;;;;;;;;;2098905;28;19974;-79
2022/05/27 05:30:42;;;;;;;;;;;;;;;;;;2098629;28;19924;-79
2022/05/27 05:31:42;;;;;;;;;;;;;;;;;;2098853;28;20280;-79
2022/05/27 05:32:43;;;;;;;;;;;;;;;;;;2098648;28;19917;-79
2022/05/27 05:33:43;;;;;;;;;;;;;;;;;;2089882;28;20365;-79
2022/05/27 05:34:43;;;;;;;;;;;;;;;;;;2090109;28;20011;-79
2022/05/27 05:35:44;;;;;;;;;;;;;;;;;;2099063;28;19912;-79
2022/05/27 05:36:44;;;;;;;;;;;;;;;;;;2097932;28;20365;-78
2022/05/27 05:37:44;;;;;;;;;;;;;;;;;;2097292;28;19943;-78
2022/05/27 05:38:45;;;;;;;;;;;;;;;;;;2097298;28;20304;-78
2022/05/27 05:39:45;;;;;;;;;;;;;;;;;;2097431;28;20018;-78
2022/05/27 05:40:46;;;;;;;;;;;;;;;;;;2097525;28;19917;-78
2022/05/27 05:41:55;;;;;;;;;;;;;;;;;;2089394;28;19913;-78
2022/05/27 05:42:55;;;;;;;;;;;;;;;;;;2090933;28;19917;-78
2022/05/27 05:43:55;;;;;;;;;;;;;;;;;;2098269;28;20325;-78
2022/05/27 05:44:58;;;;;;;;;;;;;;;;;;2098205;28;19985;-78
2022/05/27 05:45:58;;;;;;;;;;;;;;;;;;2098181;28;19920;-78
2022/05/27 05:46:59;;;;;;;;;;;;;;;;;;2098357;28;19923;-78
2022/05/27 05:48:00;;;;;;;;;;;;;;;;;;2098340;28;20274;-78
2022/05/27 05:49:00;;;;;;;;;;;;;;;;;;2098409;28;19928;-78
2022/05/27 05:50:01;;;;;;;;;;;;;;;;;;2098394;28;19916;-78
2022/05/27 05:51:01;;;;;;;;;;;;;;;;;;2097959;28;19912;-78
2022/05/27 05:52:01;;;;;;;;;;;;;;;;;;2098655;28;19999;-78
2022/05/27 05:53:02;;;;;;;;;;;;;;;;;;2098340;28;20009;-78
2022/05/27 05:54:02;;;;;;;;;;;;;;;;;;2098218;28;19917;-78
2022/05/27 05:55:03;;;;;;;;;;;;;;;;;;2098488;28;19924;-78
2022/05/27 05:56:04;;;;;;;;;;;;;;;;;;2097996;28;20276;-79
2022/05/27 05:57:04;;;;;;;;;;;;;;;;;;2098690;28;20007;-79
2022/05/27 05:58:05;;;;;;;;;;;;;;;;;;2098354;28;20331;-79
2022/05/27 05:59:05;;;;;;;;;;;;;;;;;;2098648;28;20383;-79
2022/05/27 06:00:06;;;;;;;;;;;;;;;;;;2097994;28;19920;-79
2022/05/27 06:01:06;;;;;;;;;;;;;;;;;;2098161;28;20005;-79
2022/05/27 06:02:07;;;;;;;;;;;;;;;;;;2098173;28;20153;-79
2022/05/27 06:03:08;;;;;;;;;;;;;;;;;;2098177;28;20381;-79
2022/05/27 06:04:08;;;;;;;;;;;;;;;;;;2098085;28;20373;-79
2022/05/27 06:05:09;;;;;;;;;;;;;;;;;;2098285;28;20290;-80
2022/05/27 06:06:09;;;;;;;;;;;;;;;;;;2097997;28;19916;-79
2022/05/27 06:07:10;;;;;;;;;;;;;;;;;;2098098;28;19998;-79
2022/05/27 06:08:10;;;;;;;;;;;;;;;;;;2097982;28;19912;-79
2022/05/27 06:09:10;;;;;;;;;;;;;;;;;;2098272;28;19981;-80
2022/05/27 06:10:12;;;;;;;;;;;;;;;;;;2098183;28;20262;-80
2022/05/27 06:11:12;;;;;;;;;;;;;;;;;;2098140;28;19912;-80
2022/05/27 06:12:15;;;;;;;;;;;;;;;;;;2097827;28;20369;-79
2022/05/27 06:13:15;;;;;;;;;;;;;;;;;;2097979;28;19955;-79
2022/05/27 06:14:15;;;;;;;;;;;;;;;;;;2098270;28;19917;-78
2022/05/27 06:15:16;;;;;;;;;;;;;;;;;;2097937;28;19912;-82
2022/05/27 06:16:16;;;;;;;;;;;;;;;;;;2097874;28;19924;-79
2022/05/27 06:17:16;;;;;;;;;;;;;;;;;;2098185;28;19999;-80
2022/05/27 06:18:17;;;;;;;;;;;;;;;;;;2098190;28;19917;-80
2022/05/27 06:19:17;;;;;;;;;;;;;;;;;;2098225;28;19973;-80
2022/05/27 06:20:17;;;;;;;;;;;;;;;;;;2098186;28;20002;-79
2022/05/27 06:21:18;;;;;;;;;;;;;;;;;;2097877;28;19912;-83
2022/05/27 06:22:18;;;;;;;;;;;;;;;;;;2098080;28;19913;-81
2022/05/27 06:23:18;;;;;;;;;;;;;;;;;;2098021;28;19913;-81
2022/05/27 06:24:19;;;;;;;;;;;;;;;;;;2097993;28;19912;-83
2022/05/27 06:25:19;;;;;;;;;;;;;;;;;;2098849;28;19916;-82
2022/05/27 06:26:19;;;;;;;;;;;;;;;;;;2098299;28;20003;-81
2022/05/27 06:27:20;;;;;;;;;;;;;;;;;;2097990;28;20011;-82
2022/05/27 06:34:55;;;;;;;;;;;;;;;;;;2097989;28;19913;-80
2022/05/27 06:35:55;;;;;;;;;;;;;;;;;;2097882;28;19912;-81
2022/05/27 06:36:57;;;;;;;;;;;;;;;;;;2098077;28;20357;-81
2022/05/27 06:37:57;;;;;;;;;;;;;;;;;;2097942;28;19916;-81
2022/05/27 06:38:57;;;;;;;;;;;;;;;;;;2097876;28;19938;-80
2022/05/27 06:39:58;;;;;;;;;;;;;;;;;;2097420;28;19976;-81
2022/05/27 06:40:58;;;;;;;;;;;;;;;;;;2097908;28;19912;-79
2022/05/27 06:41:59;;;;;;;;;;;;;;;;;;2098000;28;20384;-80
2022/05/27 06:42:59;;;;;;;;;;;;;;;;;;2097623;28;20003;-81
2022/05/27 06:44:00;;;;;;;;;;;;;;;;;;2097917;28;19913;-81
2022/05/27 06:45:00;;;;;;;;;;;;;;;;;;2098284;28;19913;-81
2022/05/27 06:46:01;;;;;;;;;;;;;;;;;;2097754;28;19912;-81
2022/05/27 06:47:01;;;;;;;;;;;;;;;;;;2097857;28;19974;-81
2022/05/27 06:48:01;;;;;;;;;;;;;;;;;;2089057;28;20301;-81
2022/05/27 06:49:02;;;;;;;;;;;;;;;;;;2089244;28;19928;-79
2022/05/27 06:50:03;;;;;;;;;;;;;;;;;;2097685;28;19981;-81
2022/05/27 06:51:04;;;;;;;;;;;;;;;;;;2097570;28;20361;-82
2022/05/27 06:52:04;;;;;;;;;;;;;;;;;;2098009;28;19912;-80
2022/05/27 06:53:05;;;;;;;;;;;;;;;;;;2097616;28;19923;-80
2022/05/27 06:54:06;;;;;;;;;;;;;;;;;;2098038;28;19912;-81
2022/05/27 06:55:07;;;;;;;;;;;;;;;;;;2097281;28;20406;-81
2022/05/27 06:56:08;;;;;;;;;;;;;;;;;;2098002;28;19925;-80
2022/05/27 06:57:09;;;;;;;;;;;;;;;;;;2097408;28;19912;-81
2022/05/27 06:58:09;;;;;;;;;;;;;;;;;;2097967;28;19955;-81
2022/05/27 06:59:10;;;;;;;;;;;;;;;;;;2097313;28;20073;-81
2022/05/27 07:00:11;;;;;;;;;;;;;;;;;;2097945;28;20524;-81
2022/05/27 07:01:11;;;;;;;;;;;;;;;;;;2097342;28;19912;-81
2022/05/27 07:02:12;;;;;;;;;;;;;;;;;;2097748;28;19913;-85
2022/05/27 07:03:12;;;;;;;;;;;;;;;;;;2097544;28;20387;-80
2022/05/27 07:04:12;;;;;;;;;;;;;;;;;;2097906;28;19912;-81
2022/05/27 07:05:13;;;;;;;;;;;;;;;;;;2097820;28;19916;-80
2022/05/27 07:06:13;;;;;;;;;;;;;;;;;;2097610;28;19986;-84
2022/05/27 07:07:14;;;;;;;;;;;;;;;;;;2088830;28;20015;-79
2022/05/27 07:08:14;;;;;;;;;;;;;;;;;;2088978;28;20002;-82
2022/05/27 07:09:16;;;;;;;;;;;;;;;;;;2088716;28;19923;-82
2022/05/27 07:10:16;;;;;;;;;;;;;;;;;;2088576;28;19974;-82
2022/05/27 07:11:17;;;;;;;;;;;;;;;;;;2088959;28;19986;-83
2022/05/27 07:12:17;;;;;;;;;;;;;;;;;;2097687;28;19972;-84
2022/05/27 07:13:19;;;;;;;;;;;;;;;;;;2097478;28;19912;-84
2022/05/27 07:14:20;;;;;;;;;;;;;;;;;;2097804;28;19977;-88
2022/05/27 07:15:20;;;;;;;;;;;;;;;;;;2097639;28;19913;-79
2022/05/27 07:16:20;;;;;;;;;;;;;;;;;;2098181;28;19927;-82
2022/05/27 07:17:21;;;;;;;;;;;;;;;;;;2089120;28;19913;-83
2022/05/27 07:18:21;;;;;;;;;;;;;;;;;;2089124;28;19912;-83
2022/05/27 07:19:22;;;;;;;;;;;;;;;;;;2097733;28;19923;-82
2022/05/27 07:20:23;;;;;;;;;;;;;;;;;;2088857;28;19913;-83
2022/05/27 07:21:23;;;;;;;;;;;;;;;;;;2089045;28;20003;-81